Time;durP1;ratioP1;P1;durP2;ratioP2;P2;SDS_P1;SDS_P2;PMS_P1;PMS_P2;Temp;Humidity;BMP_temperature;BMP_pressure;BME280_temperature;BME280_humidity;BME280_pressure;Samples;Min_cycle;Max_cycle;Signal;HPM_P1;HPM_P2
2023/06/09 00:01:14;;;;;;;7.95;7.22;;;19.30;68.90;;;;;;4960407;28;20026;-81
2023/06/09 00:03:40;;;;;;;11.95;7.72;;;19.30;69.50;;;;;;4961198;28;20048;-80
2023/06/09 00:06:08;;;;;;;11.55;7.45;;;19.00;70.30;;;;;;4958152;28;20390;-80
2023/06/09 00:08:37;;;;;;;11.52;7.43;;;18.80;70.20;;;;;;4990146;28;20397;-80
2023/06/09 00:11:02;;;;;;;9.23;8.00;;;18.80;72.80;;;;;;4969821;28;20066;-80
2023/06/09 00:13:28;;;;;;;11.07;7.75;;;18.70;72.50;;;;;;4963944;28;20113;-80
2023/06/09 00:15:53;;;;;;;10.68;7.47;;;18.60;72.10;;;;;;4964500;28;20458;-80
2023/06/09 00:18:19;;;;;;;9.48;8.48;;;18.50;72.20;;;;;;4973868;28;20550;-80
2023/06/09 00:20:45;;;;;;;9.80;8.35;;;18.50;74.60;;;;;;4965247;28;20035;-81
2023/06/09 00:23:13;;;;;;;12.15;8.48;;;18.50;74.00;;;;;;4979047;28;20043;-80
2023/06/09 00:25:38;;;;;;;10.40;8.10;;;18.70;71.70;;;;;;4962408;28;20556;-80
2023/06/09 00:28:04;;;;;;;9.10;7.80;;;18.60;71.30;;;;;;4969487;28;20030;-81
2023/06/09 00:30:30;;;;;;;9.13;8.23;;;18.60;70.90;;;;;;4982295;28;20057;-81
2023/06/09 00:32:55;;;;;;;9.65;8.40;;;18.50;70.70;;;;;;4965231;28;20026;-79
2023/06/09 00:35:22;;;;;;;8.13;7.32;;;18.50;71.20;;;;;;4956004;28;20124;-78
2023/06/09 00:37:48;;;;;;;9.50;8.25;;;18.50;71.20;;;;;;4966506;28;20030;-78
2023/06/09 00:40:14;;;;;;;11.93;8.30;;;18.50;71.50;;;;;;4981831;28;20034;-79
2023/06/09 00:42:40;;;;;;;14.57;9.35;;;18.30;74.20;;;;;;4948371;28;20111;-79
2023/06/09 00:45:06;;;;;;;12.35;9.82;;;18.10;72.70;;;;;;4987404;28;20475;-78
2023/06/09 00:47:31;;;;;;;10.25;8.85;;;18.00;74.40;;;;;;4977132;28;20453;-78
2023/06/09 00:49:57;;;;;;;10.40;8.55;;;18.00;76.50;;;;;;4959759;28;20042;-78
2023/06/09 00:52:22;;;;;;;11.00;9.55;;;17.90;74.40;;;;;;4969567;28;20482;-78
2023/06/09 00:54:48;;;;;;;10.80;9.70;;;17.70;74.00;;;;;;4953545;28;20122;-78
2023/06/09 00:57:14;;;;;;;14.15;9.90;;;17.70;76.50;;;;;;4985546;28;20037;-79
2023/06/09 00:59:40;;;;;;;13.45;10.77;;;17.80;78.80;;;;;;4951205;28;20026;-78
2023/06/09 01:02:05;;;;;;;14.07;9.32;;;17.80;80.90;;;;;;4974362;28;20390;-78
2023/06/09 01:04:34;;;;;;;11.60;9.35;;;17.60;76.40;;;;;;4970294;28;20478;-78
2023/06/09 01:07:38;;;;;;;11.27;10.10;;;17.50;77.10;;;;;;4953478;28;20510;-78
2023/06/09 01:10:09;;;;;;;14.38;10.73;;;17.60;80.50;;;;;;4984410;28;20136;-78
2023/06/09 01:12:58;;;;;;;12.32;10.07;;;17.50;78.80;;;;;;4990037;28;20041;-78
2023/06/09 01:15:26;;;;;;;13.70;11.07;;;17.60;77.00;;;;;;4987874;28;20034;-79
2023/06/09 01:17:55;;;;;;;13.38;10.45;;;17.50;81.80;;;;;;4959028;28;20102;-78
2023/06/09 01:20:53;;;;;;;11.38;10.18;;;17.50;77.60;;;;;;4990171;28;20112;-79
2023/06/09 01:23:29;;;;;;;13.85;11.10;;;17.50;77.20;;;;;;4971691;28;20638;-79
2023/06/09 01:25:54;;;;;;;14.65;10.43;;;17.40;77.60;;;;;;4987190;28;20042;-79
2023/06/09 01:28:20;;;;;;;12.32;11.07;;;17.40;77.90;;;;;;4975446;28;20053;-79
2023/06/09 01:30:46;;;;;;;13.88;10.73;;;17.40;78.00;;;;;;4982639;28;20056;-78
2023/06/09 01:33:14;;;;;;;18.77;11.48;;;17.20;82.10;;;;;;4973115;28;20496;-78
2023/06/09 01:35:40;;;;;;;15.05;11.45;;;17.20;80.80;;;;;;4967002;28;20030;-77
2023/06/09 01:38:06;;;;;;;14.18;11.75;;;17.20;81.10;;;;;;4982923;28;20050;-79
2023/06/09 01:40:32;;;;;;;13.57;10.95;;;17.20;81.40;;;;;;4970658;28;20144;-78
2023/06/09 01:42:59;;;;;;;14.18;11.13;;;17.10;79.70;;;;;;4955721;28;20574;-78
2023/06/09 01:45:25;;;;;;;14.07;10.85;;;17.10;80.00;;;;;;4970537;28;20052;-81
2023/06/09 01:47:51;;;;;;;15.02;10.80;;;17.00;80.60;;;;;;4954007;28;20109;-80
2023/06/09 01:50:23;;;;;;;13.63;9.85;;;16.90;81.00;;;;;;4988826;28;20041;-80
2023/06/09 01:52:58;;;;;;;16.65;10.73;;;16.90;79.40;;;;;;4973823;28;20113;-81
2023/06/09 01:55:27;;;;;;;14.05;10.57;;;16.90;83.20;;;;;;4978712;28;20104;-80
2023/06/09 01:58:18;;;;;;;14.73;10.70;;;16.90;86.10;;;;;;4972140;28;20034;-80
2023/06/09 02:00:45;;;;;;;15.98;11.40;;;16.90;87.00;;;;;;4977588;28;20033;-81
2023/06/09 02:03:10;;;;;;;12.48;10.98;;;16.90;89.40;;;;;;4959280;28;20034;-79
2023/06/09 02:05:36;;;;;;;11.40;7.50;;;16.90;86.30;;;;;;4961051;28;20037;-79
2023/06/09 02:08:01;;;;;;;11.57;7.85;;;16.90;81.10;;;;;;4949404;28;20038;-78
2023/06/09 02:10:27;;;;;;;14.25;10.60;;;17.20;79.00;;;;;;4987115;28;20937;-79
2023/06/09 02:12:53;;;;;;;15.30;10.70;;;17.10;77.70;;;;;;4977190;28;20481;-78
2023/06/09 02:15:19;;;;;;;15.68;10.65;;;16.90;78.20;;;;;;4962525;28;20577;-78
2023/06/09 02:17:45;;;;;;;16.02;11.00;;;16.90;77.80;;;;;;4997079;28;20537;-79
2023/06/09 02:20:11;;;;;;;12.30;11.10;;;17.00;77.90;;;;;;4967757;28;20187;-79
2023/06/09 02:22:36;;;;;;;13.38;11.73;;;16.70;84.40;;;;;;4956653;28;20127;-79
2023/06/09 02:25:05;;;;;;;14.27;12.00;;;16.60;85.50;;;;;;4958335;28;20034;-79
2023/06/09 02:27:31;;;;;;;16.05;11.35;;;16.50;86.10;;;;;;4971425;28;20034;-79
2023/06/09 02:29:56;;;;;;;13.70;10.82;;;16.40;90.40;;;;;;4958186;28;20033;-79
2023/06/09 02:32:22;;;;;;;7.15;6.45;;;16.60;80.20;;;;;;4946826;28;20410;-79
2023/06/09 02:34:48;;;;;;;16.33;11.00;;;16.70;79.20;;;;;;4964130;28;20402;-79
2023/06/09 02:37:14;;;;;;;13.90;11.10;;;16.80;78.50;;;;;;4989986;28;20057;-79
2023/06/09 02:39:40;;;;;;;17.23;11.20;;;16.60;78.20;;;;;;5014304;28;20083;-79
2023/06/09 02:42:05;;;;;;;12.45;11.05;;;16.50;78.40;;;;;;5006807;28;20053;-79
2023/06/09 02:44:37;;;;;;;10.55;9.30;;;16.50;78.30;;;;;;4971721;28;20034;-79
2023/06/09 02:47:06;;;;;;;15.70;12.40;;;16.40;78.10;;;;;;4959905;28;20391;-79
2023/06/09 02:49:31;;;;;;;14.95;12.55;;;16.40;81.30;;;;;;4961424;28;20040;-79
2023/06/09 02:51:57;;;;;;;15.98;13.02;;;16.30;83.50;;;;;;4989024;28;20033;-79
2023/06/09 02:54:22;;;;;;;15.80;12.90;;;16.30;84.40;;;;;;4987272;28;20034;-79
2023/06/09 02:56:48;;;;;;;16.50;13.35;;;16.30;82.50;;;;;;4968135;28;20112;-78
2023/06/09 02:59:14;;;;;;;9.88;8.68;;;16.20;83.20;;;;;;4974645;28;20030;-76
2023/06/09 03:01:42;;;;;;;13.48;11.27;;;16.30;79.70;;;;;;4978403;28;20030;-77
2023/06/09 03:04:08;;;;;;;16.40;12.07;;;16.40;78.40;;;;;;4996047;28;20502;-77
2023/06/09 03:06:35;;;;;;;15.40;12.52;;;16.00;79.50;;;;;;4961800;28;20030;-77
2023/06/09 03:09:02;;;;;;;15.88;13.45;;;15.90;90.60;;;;;;4984901;28;20029;-77
2023/06/09 03:11:28;;;;;;;15.18;13.52;;;15.80;92.40;;;;;;4977677;28;20497;-77
2023/06/09 03:13:53;;;;;;;13.60;12.32;;;15.80;93.20;;;;;;4969841;28;20035;-77
2023/06/09 03:16:19;;;;;;;16.90;13.60;;;15.80;92.20;;;;;;4960225;28;20035;-77
2023/06/09 03:18:46;;;;;;;16.42;13.98;;;15.70;95.30;;;;;;4966073;28;20391;-77
2023/06/09 03:21:13;;;;;;;15.32;13.73;;;15.60;97.60;;;;;;4955159;28;20117;-77
2023/06/09 03:23:39;;;;;;;14.70;12.98;;;15.60;98.60;;;;;;4987206;28;20084;-76
2023/06/09 03:26:05;;;;;;;15.32;13.45;;;15.60;93.90;;;;;;4963503;28;20025;-76
2023/06/09 03:28:30;;;;;;;12.82;11.13;;;15.80;92.40;;;;;;4988618;28;20030;-76
2023/06/09 03:30:56;;;;;;;11.52;10.43;;;15.80;89.80;;;;;;4979282;28;20053;-77
2023/06/09 03:33:24;;;;;;;12.93;11.52;;;16.00;88.90;;;;;;4978645;28;20034;-77
2023/06/09 03:35:49;;;;;;;19.92;12.38;;;15.90;87.80;;;;;;4999223;28;20044;-77
2023/06/09 03:38:15;;;;;;;17.02;12.50;;;15.90;89.50;;;;;;4978801;28;20140;-77
2023/06/09 03:40:40;;;;;;;15.32;13.07;;;15.80;91.90;;;;;;4980031;28;20040;-76
2023/06/09 03:43:07;;;;;;;15.13;13.63;;;15.70;90.10;;;;;;4971499;28;20077;-77
2023/06/09 03:45:34;;;;;;;17.33;13.82;;;15.70;90.40;;;;;;4973882;28;20042;-76
2023/06/09 03:48:00;;;;;;;16.08;14.18;;;15.60;96.80;;;;;;4975331;28;20094;-77
2023/06/09 03:50:26;;;;;;;15.73;13.40;;;15.40;96.80;;;;;;4957633;28;20557;-77
2023/06/09 03:52:52;;;;;;;18.38;15.13;;;15.40;99.20;;;;;;4957960;28;20030;-78
2023/06/09 03:55:22;;;;;;;19.77;15.43;;;15.50;98.60;;;;;;4955293;28;20037;-77
2023/06/09 03:57:47;;;;;;;17.77;15.85;;;15.60;98.30;;;;;;4959146;28;20072;-78
2023/06/09 04:00:15;;;;;;;18.83;14.90;;;15.60;99.60;;;;;;4973617;28;20117;-78
2023/06/09 04:02:40;;;;;;;15.27;13.68;;;15.60;99.90;;;;;;4991916;28;20116;-77
2023/06/09 04:05:06;;;;;;;17.33;14.02;;;15.60;97.70;;;;;;4968638;28;20105;-77
2023/06/09 04:07:32;;;;;;;13.80;12.43;;;15.80;98.70;;;;;;4937841;28;20038;-77
2023/06/09 04:09:58;;;;;;;13.75;12.38;;;15.90;92.80;;;;;;4958975;28;20498;-77
2023/06/09 04:12:23;;;;;;;14.82;12.63;;;16.00;93.30;;;;;;4958254;28;20128;-77
2023/06/09 04:14:49;;;;;;;15.60;13.10;;;16.10;91.90;;;;;;4988111;28;20030;-79
2023/06/09 04:17:14;;;;;;;14.57;12.70;;;16.10;91.60;;;;;;4961702;28;20030;-77
2023/06/09 04:19:40;;;;;;;15.07;12.88;;;16.20;91.00;;;;;;4973759;28;20030;-77
2023/06/09 04:22:07;;;;;;;14.05;12.30;;;16.30;90.60;;;;;;4955403;28;20030;-77
2023/06/09 04:24:33;;;;;;;13.32;11.93;;;16.40;91.50;;;;;;4987671;28;20045;-77
2023/06/09 04:27:00;;;;;;;15.23;13.52;;;16.50;91.90;;;;;;4987776;28;20113;-77
2023/06/09 04:29:25;;;;;;;21.17;15.18;;;16.50;91.90;;;;;;4961585;28;20081;-77
2023/06/09 04:31:58;;;;;;;18.83;13.50;;;16.60;94.30;;;;;;4947506;28;20015;-77
2023/06/09 04:34:28;;;;;;;21.13;14.93;;;16.70;94.50;;;;;;4959212;28;20464;-77
2023/06/09 04:36:55;;;;;;;18.33;14.00;;;16.90;94.60;;;;;;4979703;28;20406;-77
2023/06/09 04:39:21;;;;;;;16.52;13.88;;;17.00;95.20;;;;;;4974372;28;20501;-77
2023/06/09 04:41:49;;;;;;;19.55;13.57;;;17.20;96.40;;;;;;4989653;28;20040;-78
2023/06/09 04:44:15;;;;;;;17.88;14.40;;;17.40;94.20;;;;;;4966679;28;20038;-77
2023/06/09 04:46:41;;;;;;;18.40;14.27;;;17.40;94.90;;;;;;4974068;28;20033;-77
2023/06/09 04:49:10;;;;;;;16.25;14.50;;;17.60;94.40;;;;;;4971579;28;20031;-77
2023/06/09 04:51:41;;;;;;;19.08;14.23;;;17.80;94.90;;;;;;4996120;28;20042;-77
2023/06/09 04:54:10;;;;;;;16.23;13.32;;;17.90;95.40;;;;;;4979935;28;20060;-78
2023/06/09 04:56:36;;;;;;;17.50;13.07;;;18.10;95.30;;;;;;4956468;28;20058;-76
2023/06/09 04:59:03;;;;;;;15.85;13.93;;;18.20;94.70;;;;;;4973948;28;20105;-76
2023/06/09 05:01:30;;;;;;;18.92;14.18;;;18.40;94.90;;;;;;4958548;28;20037;-77
2023/06/09 05:03:56;;;;;;;17.92;14.25;;;18.60;95.60;;;;;;4956882;28;20516;-76
2023/06/09 05:06:21;;;;;;;15.10;13.45;;;18.80;95.00;;;;;;4971577;28;20066;-76
2023/06/09 05:08:48;;;;;;;17.33;14.60;;;19.00;95.10;;;;;;4972513;28;20496;-76
2023/06/09 05:11:14;;;;;;;17.80;14.45;;;19.30;95.30;;;;;;4974256;28;20621;-76
2023/06/09 05:13:39;;;;;;;18.65;14.15;;;19.40;95.10;;;;;;4969672;28;20041;-76
2023/06/09 05:16:05;;;;;;;16.15;14.43;;;19.60;95.00;;;;;;4969527;28;20040;-77
2023/06/09 05:18:31;;;;;;;16.88;15.13;;;19.80;94.50;;;;;;4976893;28;20034;-77
2023/06/09 05:20:56;;;;;;;16.55;14.07;;;20.10;94.70;;;;;;4990004;28;20125;-77
2023/06/09 05:23:22;;;;;;;18.00;15.18;;;20.20;94.10;;;;;;4973502;28;20046;-79
2023/06/09 05:25:49;;;;;;;16.20;12.35;;;20.40;93.60;;;;;;4943039;28;20144;-78
2023/06/09 05:28:14;;;;;;;16.23;14.50;;;20.60;93.30;;;;;;4980124;28;20200;-78
2023/06/09 05:30:40;;;;;;;16.05;14.38;;;20.90;93.40;;;;;;4977010;28;20561;-78
2023/06/09 05:33:06;;;;;;;18.48;15.07;;;21.10;93.70;;;;;;4981908;28;20103;-78
2023/06/09 05:35:33;;;;;;;14.82;13.18;;;21.40;94.00;;;;;;4966200;28;20097;-76
2023/06/09 05:37:58;;;;;;;17.05;15.35;;;21.60;93.30;;;;;;4948020;28;20046;-77
2023/06/09 05:40:24;;;;;;;17.50;14.18;;;21.80;93.40;;;;;;4981042;28;20049;-76
2023/06/09 05:42:49;;;;;;;18.05;15.30;;;22.00;93.00;;;;;;4990914;28;20069;-77
2023/06/09 05:45:15;;;;;;;20.25;14.27;;;22.10;92.70;;;;;;4960073;28;20105;-76
2023/06/09 05:47:41;;;;;;;21.52;14.68;;;22.20;92.30;;;;;;4974736;28;20037;-76
2023/06/09 05:50:09;;;;;;;16.63;13.68;;;22.40;92.10;;;;;;4953405;28;20421;-76
2023/06/09 05:52:34;;;;;;;21.50;14.77;;;22.60;91.80;;;;;;4953767;28;20113;-76
2023/06/09 05:55:01;;;;;;;16.25;13.15;;;22.80;91.80;;;;;;4989424;28;20128;-76
2023/06/09 05:57:29;;;;;;;13.90;12.48;;;23.00;91.40;;;;;;4975053;28;20034;-76
2023/06/09 05:59:56;;;;;;;15.05;12.90;;;23.20;91.20;;;;;;4957663;28;20364;-75
2023/06/09 06:02:22;;;;;;;13.32;10.93;;;23.50;90.80;;;;;;4973653;28;20653;-76
2023/06/09 06:04:47;;;;;;;17.20;12.57;;;23.60;90.50;;;;;;4984610;28;20026;-76
2023/06/09 06:07:16;;;;;;;17.20;12.70;;;23.90;90.60;;;;;;4968942;28;20022;-77
2023/06/09 06:09:41;;;;;;;17.15;12.30;;;24.10;90.30;;;;;;4974586;28;20503;-77
2023/06/09 06:12:07;;;;;;;16.75;13.13;;;24.30;90.00;;;;;;4985156;28;20482;-77
2023/06/09 06:14:33;;;;;;;16.58;11.27;;;24.50;89.60;;;;;;4970079;28;20026;-78
2023/06/09 06:16:58;;;;;;;14.20;11.85;;;24.70;88.90;;;;;;4972235;28;20034;-77
2023/06/09 06:19:24;;;;;;;17.30;10.13;;;24.90;88.70;;;;;;4952130;28;20150;-77
2023/06/09 06:21:50;;;;;;;13.93;10.95;;;25.00;87.50;;;;;;4983643;28;20181;-78
2023/06/09 06:24:15;;;;;;;13.32;11.48;;;25.40;86.90;;;;;;4986454;28;20042;-77
2023/06/09 06:26:41;;;;;;;14.27;11.63;;;25.60;85.10;;;;;;4985973;28;20619;-77
2023/06/09 06:29:07;;;;;;;19.88;11.90;;;25.60;85.10;;;;;;4970273;28;20120;-77
2023/06/09 06:31:32;;;;;;;14.40;9.65;;;25.90;84.20;;;;;;4946512;28;20057;-77
2023/06/09 06:33:58;;;;;;;8.23;7.43;;;26.10;83.80;;;;;;4964862;28;20836;-77
2023/06/09 06:36:26;;;;;;;12.68;10.25;;;26.20;81.90;;;;;;4985290;28;20375;-77
2023/06/09 06:38:51;;;;;;;11.15;9.88;;;26.40;82.80;;;;;;4958312;28;20503;-77
2023/06/09 06:41:17;;;;;;;10.10;8.77;;;26.60;82.10;;;;;;4974849;28;20166;-77
2023/06/09 06:43:43;;;;;;;14.82;9.27;;;26.60;81.70;;;;;;4983121;28;20526;-77
2023/06/09 06:46:11;;;;;;;9.40;7.63;;;27.00;81.60;;;;;;4992250;28;20022;-76
2023/06/09 06:48:38;;;;;;;11.00;9.88;;;27.10;79.30;;;;;;4977705;28;20035;-76
2023/06/09 06:51:06;;;;;;;11.88;8.77;;;27.40;80.00;;;;;;4959190;28;20068;-75
2023/06/09 06:53:33;;;;;;;12.95;9.52;;;27.60;78.80;;;;;;4975545;28;20044;-75
2023/06/09 06:55:59;;;;;;;10.80;9.70;;;27.60;78.50;;;;;;4973990;28;20503;-76
2023/06/09 06:58:27;;;;;;;11.77;7.90;;;28.00;78.30;;;;;;4992492;28;20117;-76
2023/06/09 07:00:56;;;;;;;10.43;8.93;;;28.10;77.50;;;;;;4989365;28;20030;-77
2023/06/09 07:03:26;;;;;;;6.97;6.30;;;28.40;76.70;;;;;;4958447;28;20044;-76
2023/06/09 07:05:51;;;;;;;11.15;8.45;;;28.50;74.50;;;;;;4971993;28;20453;-76
2023/06/09 07:08:17;;;;;;;10.82;9.15;;;28.70;76.10;;;;;;4975684;28;20034;-76
2023/06/09 07:10:43;;;;;;;9.30;8.30;;;28.90;74.40;;;;;;4958319;28;20042;-76
2023/06/09 07:13:08;;;;;;;7.65;6.88;;;28.90;73.80;;;;;;4955817;28;20088;-77
2023/06/09 07:15:36;;;;;;;9.20;7.82;;;29.20;74.00;;;;;;4987946;28;20037;-76
2023/06/09 07:18:03;;;;;;;9.15;7.68;;;29.40;72.00;;;;;;4956875;28;20541;-76
2023/06/09 07:20:28;;;;;;;6.97;6.38;;;29.60;72.00;;;;;;4975922;28;20525;-76
2023/06/09 07:22:54;;;;;;;6.90;6.30;;;29.80;71.50;;;;;;4976409;28;20030;-77
2023/06/09 07:25:20;;;;;;;11.60;8.68;;;29.90;70.90;;;;;;4958803;28;20025;-78
2023/06/09 07:27:45;;;;;;;8.98;8.07;;;30.00;70.70;;;;;;4975909;28;20129;-76
2023/06/09 07:30:11;;;;;;;8.00;7.30;;;30.30;70.70;;;;;;4958919;28;20086;-78
2023/06/09 07:32:39;;;;;;;8.63;7.82;;;30.40;69.50;;;;;;4990112;28;20030;-81
2023/06/09 07:35:05;;;;;;;8.18;6.80;;;30.60;68.90;;;;;;4953777;28;20030;-81
2023/06/09 07:37:31;;;;;;;8.95;6.70;;;30.80;67.60;;;;;;4983362;28;20490;-81
2023/06/09 07:39:57;;;;;;;13.82;7.85;;;30.90;67.20;;;;;;4966316;28;20054;-81
2023/06/09 07:42:22;;;;;;;6.43;5.88;;;31.10;65.60;;;;;;4965595;28;20136;-81
2023/06/09 07:44:48;;;;;;;5.45;4.95;;;31.10;66.10;;;;;;4967298;28;20114;-82
2023/06/09 07:47:13;;;;;;;6.40;5.80;;;31.20;65.60;;;;;;4989611;28;21721;-83
2023/06/09 07:49:39;;;;;;;6.47;5.72;;;31.20;65.10;;;;;;4963515;28;20274;-81
2023/06/09 07:52:07;;;;;;;7.47;6.63;;;30.80;63.70;;;;;;4953519;28;20058;-82
2023/06/09 07:54:33;;;;;;;8.13;6.50;;;31.10;65.00;;;;;;4978569;28;20034;-81
2023/06/09 07:56:59;;;;;;;8.05;6.82;;;31.50;64.10;;;;;;4977461;28;20034;-82
2023/06/09 07:59:24;;;;;;;6.35;5.60;;;31.80;63.80;;;;;;4981175;28;20065;-82
2023/06/09 08:01:50;;;;;;;6.30;5.70;;;31.90;62.90;;;;;;4977440;28;20021;-81
2023/06/09 08:04:16;;;;;;;7.65;5.97;;;32.00;62.50;;;;;;4962181;28;20043;-82
2023/06/09 08:06:42;;;;;;;6.75;6.15;;;32.10;61.50;;;;;;4949349;28;20080;-83
2023/06/09 08:09:09;;;;;;;9.55;6.25;;;32.30;60.40;;;;;;4985884;28;20033;-83
2023/06/09 08:11:34;;;;;;;5.43;4.90;;;32.00;61.80;;;;;;4959241;28;20546;-83
2023/06/09 08:14:00;;;;;;;5.65;5.15;;;32.30;60.90;;;;;;4963405;28;20121;-83
2023/06/09 08:16:25;;;;;;;6.35;5.85;;;32.40;59.90;;;;;;4973703;28;20120;-83
2023/06/09 08:18:51;;;;;;;5.72;5.18;;;32.70;58.80;;;;;;4962890;28;20025;-82
2023/06/09 08:21:17;;;;;;;6.57;5.72;;;32.80;58.80;;;;;;4974176;28;20055;-82
2023/06/09 08:23:46;;;;;;;7.97;5.88;;;32.80;58.80;;;;;;4972903;28;20034;-82
2023/06/09 08:26:12;;;;;;;11.15;5.75;;;32.90;57.80;;;;;;4988188;28;20045;-79
2023/06/09 08:28:38;;;;;;;6.75;5.10;;;33.10;57.70;;;;;;4973843;28;20089;-80
2023/06/09 08:31:04;;;;;;;5.65;5.15;;;33.10;58.40;;;;;;4975280;28;20034;-79
2023/06/09 08:33:33;;;;;;;5.75;5.25;;;33.20;57.30;;;;;;4957276;28;20045;-79
2023/06/09 08:36:01;;;;;;;9.13;4.85;;;33.00;57.10;;;;;;4975562;28;20061;-80
2023/06/09 08:38:27;;;;;;;6.03;5.43;;;33.30;56.10;;;;;;4991605;28;20132;-78
2023/06/09 08:40:53;;;;;;;5.90;5.38;;;33.10;57.00;;;;;;4987956;28;20164;-79
2023/06/09 08:43:18;;;;;;;9.27;5.10;;;33.40;56.00;;;;;;4969684;28;20038;-78
2023/06/09 08:45:44;;;;;;;6.60;5.05;;;33.50;55.50;;;;;;4953308;28;20041;-80
2023/06/09 08:48:09;;;;;;;6.93;4.88;;;33.60;55.10;;;;;;4943926;28;20038;-79
2023/06/09 08:50:41;;;;;;;6.97;4.95;;;33.40;56.00;;;;;;4944330;28;20038;-79
2023/06/09 08:53:07;;;;;;;6.68;4.68;;;33.60;55.20;;;;;;4961102;28;20053;-79
2023/06/09 08:55:33;;;;;;;5.38;4.72;;;33.60;54.90;;;;;;4986951;28;20061;-78
2023/06/09 08:57:58;;;;;;;5.30;4.80;;;33.80;54.50;;;;;;4973181;28;20022;-77
2023/06/09 09:00:24;;;;;;;5.43;4.43;;;34.00;53.10;;;;;;4984321;28;20037;-78
2023/06/09 09:02:49;;;;;;;7.25;4.65;;;34.00;54.30;;;;;;4955788;28;20046;-78
2023/06/09 09:05:15;;;;;;;8.40;4.05;;;33.90;54.50;;;;;;4987625;28;20121;-78
2023/06/09 09:07:41;;;;;;;4.60;4.20;;;34.10;53.80;;;;;;4994579;28;20544;-78
2023/06/09 09:10:06;;;;;;;5.35;4.90;;;33.90;54.50;;;;;;4987306;28;20053;-78
2023/06/09 09:13:06;;;;;;;9.70;4.38;;;34.10;53.80;;;;;;4942436;28;20034;-77
2023/06/09 09:15:31;;;;;;;6.30;4.70;;;34.50;52.20;;;;;;4940167;28;20463;-79
2023/06/09 09:17:57;;;;;;;6.00;4.03;;;34.70;52.20;;;;;;4948338;28;20043;-79
2023/06/09 09:20:34;;;;;;;5.07;4.40;;;34.70;52.50;;;;;;4971737;28;20045;-79
2023/06/09 09:23:00;;;;;;;5.00;4.45;;;34.90;50.90;;;;;;4970513;28;20156;-78
2023/06/09 09:25:27;;;;;;;4.25;3.95;;;35.00;51.20;;;;;;4955186;28;20042;-78
2023/06/09 09:28:06;;;;;;;4.45;4.05;;;35.10;50.30;;;;;;4953640;28;20035;-78
2023/06/09 09:30:42;;;;;;;8.65;4.30;;;35.10;51.30;;;;;;4970961;28;20034;-77
2023/06/09 09:33:09;;;;;;;4.15;3.67;;;35.10;50.10;;;;;;4991640;28;20037;-78
2023/06/09 09:35:42;;;;;;;4.82;3.95;;;35.10;48.60;;;;;;4961639;28;20088;-82
2023/06/09 09:38:13;;;;;;;4.60;3.50;;;35.30;48.50;;;;;;4972142;28;20505;-82
2023/06/09 09:40:42;;;;;;;5.50;4.18;;;35.20;49.60;;;;;;4982296;28;20034;-82
2023/06/09 09:43:10;;;;;;;4.20;3.88;;;35.40;49.60;;;;;;4969787;28;20084;-81
2023/06/09 09:45:38;;;;;;;5.35;4.63;;;35.30;49.70;;;;;;4970699;28;20864;-82
2023/06/09 09:48:11;;;;;;;8.25;3.95;;;35.40;50.10;;;;;;4944764;28;20494;-82
2023/06/09 09:50:37;;;;;;;6.22;3.58;;;35.40;49.60;;;;;;4953219;28;20549;-81
2023/06/09 09:53:05;;;;;;;4.22;3.83;;;35.50;48.40;;;;;;4958417;28;20027;-81
2023/06/09 09:55:32;;;;;;;5.10;3.42;;;35.40;48.60;;;;;;4962304;28;20038;-81
2023/06/09 09:57:58;;;;;;;4.53;4.05;;;35.30;47.30;;;;;;4971215;28;20161;-80
2023/06/09 10:00:25;;;;;;;4.05;3.70;;;35.40;49.50;;;;;;4970004;28;20581;-79
2023/06/09 10:02:51;;;;;;;4.47;3.65;;;35.50;48.90;;;;;;4954643;28;20498;-82
2023/06/09 10:05:16;;;;;;;3.72;3.42;;;36.10;48.00;;;;;;4983013;28;20041;-81
2023/06/09 10:07:45;;;;;;;4.15;3.53;;;36.00;46.70;;;;;;4969800;28;20046;-82
2023/06/09 10:10:12;;;;;;;5.15;3.85;;;36.10;47.80;;;;;;4959405;28;20056;-82
2023/06/09 10:12:38;;;;;;;4.32;3.92;;;36.60;46.90;;;;;;4957149;28;20061;-82
2023/06/09 10:15:06;;;;;;;4.18;3.38;;;36.40;47.90;;;;;;4956942;28;20034;-82
2023/06/09 10:17:31;;;;;;;6.50;3.00;;;36.30;48.50;;;;;;4984672;28;20038;-82
2023/06/09 10:20:00;;;;;;;4.57;4.18;;;36.50;48.30;;;;;;4963400;28;20033;-81
2023/06/09 10:22:25;;;;;;;3.90;3.60;;;36.70;47.80;;;;;;4968689;28;20464;-82
2023/06/09 10:24:51;;;;;;;3.92;3.58;;;37.10;46.60;;;;;;4978193;28;20030;-82
2023/06/09 10:27:16;;;;;;;5.70;4.00;;;37.10;46.90;;;;;;4959441;28;20478;-82
2023/06/09 10:29:45;;;;;;;3.78;3.47;;;37.10;46.20;;;;;;4960243;28;20413;-82
2023/06/09 10:32:12;;;;;;;3.80;3.30;;;37.10;45.30;;;;;;4965852;28;20524;-83
2023/06/09 10:34:37;;;;;;;4.80;3.90;;;37.50;46.30;;;;;;4990679;28;20033;-83
2023/06/09 10:37:04;;;;;;;4.00;3.70;;;37.70;46.00;;;;;;4979215;28;20073;-84
2023/06/09 10:39:49;;;;;;;3.30;2.92;;;37.50;43.60;;;;;;4997178;28;20048;-82
2023/06/09 10:42:21;;;;;;;6.38;3.33;;;37.20;45.60;;;;;;4973558;28;20045;-83
2023/06/09 10:45:04;;;;;;;4.63;3.88;;;37.50;45.20;;;;;;4963972;28;20053;-83
2023/06/09 10:47:48;;;;;;;4.10;3.60;;;37.90;44.50;;;;;;4980058;28;20041;-83
2023/06/09 10:50:26;;;;;;;4.88;3.50;;;37.90;45.20;;;;;;4961864;28;20030;-83
2023/06/09 10:52:59;;;;;;;3.92;3.58;;;38.10;43.80;;;;;;4971198;28;20022;-84
2023/06/09 10:55:30;;;;;;;6.40;3.53;;;38.40;41.70;;;;;;4959854;28;20121;-83
2023/06/09 10:57:57;;;;;;;4.70;3.88;;;38.40;42.80;;;;;;4964014;28;20026;-83
2023/06/09 11:00:23;;;;;;;3.75;3.45;;;38.40;42.20;;;;;;4954298;28;20042;-84
2023/06/09 11:02:50;;;;;;;5.13;3.17;;;38.50;42.90;;;;;;4991056;28;20121;-82
2023/06/09 11:05:17;;;;;;;3.63;3.33;;;38.50;43.30;;;;;;4976747;28;20091;-84
2023/06/09 11:07:52;;;;;;;3.67;3.38;;;38.70;43.70;;;;;;4994004;28;20113;-84
2023/06/09 11:10:18;;;;;;;5.72;3.22;;;38.90;43.00;;;;;;4966107;28;20058;-83
2023/06/09 11:12:46;;;;;;;3.42;3.13;;;39.00;43.10;;;;;;4990912;28;20446;-82
2023/06/09 11:15:15;;;;;;;3.67;3.38;;;39.00;42.60;;;;;;4957006;28;20481;-83
2023/06/09 11:17:45;;;;;;;6.47;3.60;;;39.20;41.30;;;;;;4971687;28;20030;-83
2023/06/09 11:20:10;;;;;;;4.85;3.50;;;39.20;42.40;;;;;;4988297;28;20029;-82
2023/06/09 11:22:42;;;;;;;3.65;3.33;;;39.50;41.50;;;;;;4974114;28;20791;-83
2023/06/09 11:25:23;;;;;;;6.32;3.50;;;39.40;41.80;;;;;;4980144;28;20032;-83
2023/06/09 11:27:55;;;;;;;3.47;3.28;;;39.50;42.40;;;;;;5013462;28;20022;-82
2023/06/09 11:30:21;;;;;;;4.68;3.03;;;39.60;42.80;;;;;;4999948;28;20033;-83
2023/06/09 11:33:05;;;;;;;4.38;3.05;;;39.60;42.80;;;;;;4960794;28;20053;-82
2023/06/09 11:35:31;;;;;;;4.60;3.60;;;40.10;40.60;;;;;;4955331;28;20494;-84
2023/06/09 11:38:01;;;;;;;2.70;2.50;;;40.20;40.70;;;;;;5004247;28;20030;-80
2023/06/09 11:40:28;;;;;;;3.58;3.08;;;39.70;40.10;;;;;;4970589;28;20549;-81
2023/06/09 11:42:58;;;;;;;5.15;3.20;;;39.90;39.80;;;;;;4964249;28;20038;-82
2023/06/09 11:45:24;;;;;;;3.63;3.33;;;39.70;40.10;;;;;;4269836;28;10000329;-81
2023/06/09 11:47:56;;;;;;;7.95;3.58;;;39.30;40.60;;;;;;4988915;28;20038;-82
2023/06/09 11:50:22;;;;;;;4.78;3.40;;;39.20;40.20;;;;;;4960237;28;20038;-82
2023/06/09 11:52:48;;;;;;;4.82;3.72;;;39.10;39.60;;;;;;4950376;28;20465;-81
2023/06/09 11:55:17;;;;;;;5.82;3.35;;;39.10;39.60;;;;;;4957875;28;21141;-82
2023/06/09 11:57:42;;;;;;;4.38;3.55;;;39.10;40.20;;;;;;4960917;28;20039;-81
2023/06/09 12:00:12;;;;;;;3.88;3.55;;;38.80;40.60;;;;;;4988300;28;20498;-81
2023/06/09 12:02:41;;;;;;;3.28;3.00;;;38.60;40.70;;;;;;4972769;28;20378;-81
2023/06/09 12:05:13;;;;;;;6.18;3.17;;;38.50;39.50;;;;;;4978330;28;20092;-81
2023/06/09 12:07:41;;;;;;;3.65;3.22;;;38.80;40.90;;;;;;4959245;28;20033;-80
2023/06/09 12:10:07;;;;;;;3.20;3.00;;;39.20;40.00;;;;;;4975463;28;20113;-81
2023/06/09 12:12:49;;;;;;;4.07;3.05;;;39.60;40.00;;;;;;4962678;28;20086;-82
2023/06/09 12:15:16;;;;;;;4.88;4.45;;;39.60;40.70;;;;;;4937436;28;20422;-81
2023/06/09 12:17:41;;;;;;;4.47;4.03;;;40.20;39.00;;;;;;4976006;28;20397;-81
2023/06/09 12:20:29;;;;;;;8.15;3.95;;;40.40;40.00;;;;;;4972603;28;20031;-82
2023/06/09 12:23:07;;;;;;;10.18;4.82;;;40.60;39.80;;;;;;5005031;28;20125;-81
2023/06/09 12:25:43;;;;;;;5.25;4.18;;;40.60;38.50;;;;;;4992051;28;20033;-81
2023/06/09 12:28:26;;;;;;;3.78;3.47;;;40.50;39.40;;;;;;4970868;28;20537;-80
2023/06/09 12:31:15;;;;;;;4.20;3.80;;;40.50;38.70;;;;;;4946755;28;20113;-81
2023/06/09 12:33:46;;;;;;;3.78;3.47;;;40.60;39.30;;;;;;4960668;28;20520;-81
2023/06/09 12:36:11;;;;;;;4.80;4.40;;;40.40;39.80;;;;;;4976114;28;20109;-81
2023/06/09 12:38:38;;;;;;;7.35;4.53;;;40.60;39.80;;;;;;4960588;28;20061;-80
2023/06/09 12:41:12;;;;;;;4.60;4.22;;;41.00;39.30;;;;;;4968644;28;20044;-80